createdAt,value
2018-07-17T00:00:03.709Z,3.72
2018-07-17T00:02:32.015Z,3.90
2018-07-17T00:05:00.277Z,3.75
2018-07-17T00:07:28.611Z,4.17
2018-07-17T00:09:56.930Z,4.03
2018-07-17T00:12:25.235Z,3.92
2018-07-17T00:14:53.523Z,3.85
2018-07-17T00:17:21.798Z,3.85
2018-07-17T00:19:50.085Z,4.30
2018-07-17T00:22:18.404Z,3.47
2018-07-17T00:24:46.712Z,4.03
2018-07-17T00:27:14.993Z,4.17
2018-07-17T00:29:43.364Z,3.60
2018-07-17T00:32:11.666Z,3.60
2018-07-17T00:34:40.037Z,4.78
2018-07-17T00:37:08.371Z,4.35
2018-07-17T00:39:36.779Z,4.25
2018-07-17T00:42:05.080Z,4.00
2018-07-17T00:44:33.403Z,3.70
2018-07-17T00:47:01.652Z,3.90
2018-07-17T00:49:29.937Z,4.10
2018-07-17T00:51:58.227Z,3.37
2018-07-17T00:54:26.554Z,3.62
2018-07-17T00:56:54.864Z,4.25
2018-07-17T00:59:23.163Z,3.90
2018-07-17T01:01:56.793Z,4.67
2018-07-17T01:04:30.532Z,3.83
2018-07-17T01:07:04.332Z,4.05
2018-07-17T01:09:37.950Z,3.83
2018-07-17T01:12:11.604Z,3.65
2018-07-17T01:14:45.968Z,4.35
2018-07-17T01:17:14.624Z,4.17
2018-07-17T01:19:42.910Z,4.17
2018-07-17T01:22:11.264Z,4.22
2018-07-17T01:24:39.539Z,3.42
2018-07-17T01:27:07.864Z,3.90
2018-07-17T01:29:36.169Z,4.22
2018-07-17T01:32:04.800Z,4.20
2018-07-17T01:34:33.093Z,4.50
2018-07-17T01:37:01.135Z,3.80
2018-07-17T01:39:29.449Z,4.40
2018-07-17T01:41:57.459Z,4.30
2018-07-17T01:44:25.735Z,3.72
2018-07-17T01:46:54.020Z,4.05
2018-07-17T01:49:22.354Z,4.22
2018-07-17T01:51:50.662Z,4.25
2018-07-17T01:54:18.991Z,4.15
2018-07-17T01:56:47.378Z,4.00
2018-07-17T01:59:15.680Z,4.17
2018-07-17T02:01:44.014Z,4.15
2018-07-17T02:04:12.452Z,4.47
2018-07-17T02:06:40.812Z,4.28
2018-07-17T02:09:09.152Z,4.37
2018-07-17T02:11:37.460Z,4.42
2018-07-17T02:14:05.798Z,4.90
2018-07-17T02:16:34.136Z,4.33
2018-07-17T02:19:02.571Z,3.90
2018-07-17T02:21:30.904Z,4.10
2018-07-17T02:23:59.296Z,4.58
2018-07-17T02:26:27.684Z,4.30
2018-07-17T02:28:56.075Z,4.42
2018-07-17T02:31:24.400Z,4.15
2018-07-17T02:33:52.763Z,3.80
2018-07-17T02:36:21.108Z,4.65
2018-07-17T02:38:49.462Z,4.85
2018-07-17T02:41:17.817Z,4.50
2018-07-17T02:43:46.173Z,4.60
2018-07-17T02:46:14.484Z,4.60
2018-07-17T02:48:42.801Z,4.30
2018-07-17T02:51:11.100Z,4.78
2018-07-17T02:53:39.433Z,4.55
2018-07-17T02:56:07.812Z,4.47
2018-07-17T02:58:36.112Z,4.62
2018-07-17T03:01:04.545Z,4.17
2018-07-17T03:03:32.831Z,4.70
2018-07-17T03:06:01.164Z,5.37
2018-07-17T03:08:29.492Z,4.17
2018-07-17T03:10:57.794Z,5.17
2018-07-17T03:13:26.167Z,4.90
2018-07-17T03:15:54.477Z,4.45
2018-07-17T03:18:22.791Z,4.22
2018-07-17T03:20:51.110Z,5.12
2018-07-17T03:23:19.452Z,4.58
2018-07-17T03:25:47.756Z,4.10
2018-07-17T03:28:16.124Z,4.75
2018-07-17T03:30:44.404Z,4.37
2018-07-17T03:33:12.776Z,4.92
2018-07-17T03:35:41.469Z,4.70
2018-07-17T03:38:09.831Z,4.40
2018-07-17T03:40:38.135Z,4.92
2018-07-17T03:43:06.497Z,4.58
2018-07-17T03:45:34.816Z,4.58
2018-07-17T03:48:03.105Z,4.65
2018-07-17T03:50:31.438Z,4.80
2018-07-17T03:52:59.711Z,4.60
2018-07-17T03:55:28.023Z,4.85
2018-07-17T03:57:56.333Z,4.37
2018-07-17T04:00:24.683Z,5.10
2018-07-17T04:02:53.016Z,4.40
2018-07-17T04:05:21.284Z,5.08
2018-07-17T04:07:49.611Z,4.85
2018-07-17T04:10:17.913Z,5.03
2018-07-17T04:12:46.212Z,4.72
2018-07-17T04:15:14.489Z,4.47
2018-07-17T04:17:42.771Z,5.25
2018-07-17T04:20:11.196Z,4.85
2018-07-17T04:22:39.484Z,5.33
2018-07-17T04:25:07.872Z,5.25
2018-07-17T04:27:36.187Z,5.30
2018-07-17T04:30:04.505Z,5.30
2018-07-17T04:32:32.831Z,5.45
2018-07-17T04:35:01.118Z,4.75
2018-07-17T04:37:29.394Z,4.78
2018-07-17T04:39:57.701Z,5.47
2018-07-17T04:42:26.075Z,5.95
2018-07-17T04:44:54.427Z,5.78
2018-07-17T04:47:22.785Z,5.30
2018-07-17T04:49:51.255Z,5.28
2018-07-17T04:52:19.624Z,5.37
2018-07-17T04:54:47.904Z,5.20
2018-07-17T04:57:16.209Z,5.35
2018-07-17T04:59:44.499Z,5.75
2018-07-17T05:02:12.908Z,5.55
2018-07-17T05:04:41.222Z,6.20
2018-07-17T05:07:10.553Z,6.42
2018-07-17T05:09:38.879Z,6.80
2018-07-17T05:12:07.204Z,7.37
2018-07-17T05:14:35.588Z,7.42
2018-07-17T05:17:03.935Z,6.50
2018-07-17T05:19:32.381Z,6.92
2018-07-17T05:22:00.693Z,6.22
2018-07-17T05:24:29.183Z,6.92
2018-07-17T05:26:57.552Z,7.37
2018-07-17T05:29:25.939Z,6.72
2018-07-17T05:31:54.213Z,7.20
2018-07-17T05:34:22.551Z,6.30
2018-07-17T05:36:50.976Z,7.00
2018-07-17T05:39:19.342Z,6.25
2018-07-17T05:41:47.688Z,7.37
2018-07-17T05:44:15.991Z,6.08
2018-07-17T05:46:44.413Z,6.12
2018-07-17T05:49:12.748Z,5.97
2018-07-17T05:51:41.095Z,6.42
2018-07-17T05:54:09.380Z,6.65
2018-07-17T05:56:37.848Z,6.95
2018-07-17T05:59:06.215Z,6.60
2018-07-17T06:01:34.574Z,5.92
2018-07-17T06:04:02.905Z,5.75
2018-07-17T06:06:31.229Z,5.80
2018-07-17T06:08:59.545Z,5.70
2018-07-17T06:11:28.007Z,5.35
2018-07-17T06:13:56.046Z,5.15
2018-07-17T06:16:24.387Z,5.20
2018-07-17T06:18:52.704Z,4.85
2018-07-17T06:21:20.995Z,6.25
2018-07-17T06:23:49.347Z,5.90
2018-07-17T06:26:17.746Z,5.37
2018-07-17T06:28:46.018Z,5.67
2018-07-17T06:31:14.447Z,5.15
2018-07-17T06:33:42.817Z,5.67
2018-07-17T06:36:11.181Z,5.22
2018-07-17T06:38:39.570Z,5.12
2018-07-17T06:41:07.879Z,4.87
2018-07-17T06:43:36.155Z,5.58
2018-07-17T06:46:04.829Z,6.78
2018-07-17T06:48:33.470Z,5.83
2018-07-17T06:51:01.808Z,5.78
2018-07-17T06:53:30.174Z,6.55
2018-07-17T06:55:58.460Z,6.58
2018-07-17T06:58:26.742Z,5.35
2018-07-17T07:00:55.042Z,5.75
2018-07-17T07:03:23.368Z,5.00
2018-07-17T07:05:51.753Z,5.70
2018-07-17T07:08:20.061Z,5.83
2018-07-17T07:10:48.363Z,5.70
2018-07-17T07:13:16.788Z,5.12
2018-07-17T07:15:45.731Z,5.92
2018-07-17T07:18:14.057Z,6.75
2018-07-17T07:20:42.328Z,5.62
2018-07-17T07:23:10.767Z,5.25
2018-07-17T07:25:39.073Z,5.60
2018-07-17T07:28:07.417Z,5.55
2018-07-17T07:30:35.720Z,6.75
2018-07-17T07:33:04.045Z,6.60
2018-07-17T07:35:32.374Z,5.65
2018-07-17T07:38:00.689Z,4.45
2018-07-17T07:40:29.015Z,4.10
2018-07-17T07:42:57.367Z,3.70
2018-07-17T07:45:25.694Z,4.83
2018-07-17T07:47:55.540Z,4.70
2018-07-17T07:50:24.220Z,5.55
2018-07-17T07:52:52.600Z,5.30
2018-07-17T07:55:21.225Z,5.20
2018-07-17T07:57:49.820Z,5.85
2018-07-17T08:00:18.080Z,5.97
2018-07-17T08:02:46.404Z,5.50
2018-07-17T08:05:14.723Z,5.50
2018-07-17T08:07:43.027Z,6.78
2018-07-17T08:10:11.363Z,6.00
2018-07-17T08:12:39.684Z,5.62
2018-07-17T08:15:08.059Z,5.35
2018-07-17T08:17:36.486Z,5.53
2018-07-17T08:20:04.817Z,4.90
2018-07-17T08:22:33.188Z,5.15
2018-07-17T08:25:01.573Z,5.35
2018-07-17T08:27:30.000Z,5.03
2018-07-17T08:29:58.325Z,4.87
2018-07-17T08:32:26.661Z,4.28
2018-07-17T08:34:54.964Z,4.67
2018-07-17T08:37:23.244Z,4.72
2018-07-17T08:39:51.584Z,4.78
2018-07-17T08:42:19.889Z,4.42
2018-07-17T08:44:48.173Z,4.87
2018-07-17T08:47:16.488Z,4.20
2018-07-17T08:49:44.800Z,4.90
2018-07-17T08:52:13.116Z,5.30
2018-07-17T08:54:41.457Z,4.78
2018-07-17T08:57:09.728Z,5.15
2018-07-17T08:59:39.035Z,5.30
2018-07-17T09:02:07.517Z,5.03
2018-07-17T09:04:35.840Z,4.53
2018-07-17T09:07:04.239Z,4.62
2018-07-17T09:09:32.512Z,5.25
2018-07-17T09:12:00.832Z,5.70
2018-07-17T09:14:29.128Z,5.05
2018-07-17T09:16:57.399Z,4.53
2018-07-17T09:19:25.692Z,4.97
2018-07-17T09:21:53.971Z,5.72
2018-07-17T09:24:22.251Z,4.58
2018-07-17T09:26:50.543Z,4.40
2018-07-17T09:29:18.814Z,4.70
2018-07-17T09:31:47.134Z,5.85
2018-07-17T09:34:15.482Z,4.85
2018-07-17T09:36:43.795Z,6.00
2018-07-17T09:39:12.150Z,4.55
2018-07-17T09:41:40.488Z,4.45
2018-07-17T09:44:08.871Z,4.45
2018-07-17T09:46:37.195Z,4.50
2018-07-17T09:49:05.526Z,5.45
2018-07-17T09:51:33.887Z,4.47
2018-07-17T09:54:02.200Z,4.55
2018-07-17T09:56:30.543Z,4.83
2018-07-17T09:58:58.904Z,4.35
2018-07-17T10:01:32.736Z,5.10
2018-07-17T10:04:01.080Z,4.12
2018-07-17T10:06:29.506Z,4.22
2018-07-17T10:08:57.740Z,3.35
2018-07-17T10:11:26.032Z,2.65
2018-07-17T10:13:54.367Z,2.55
2018-07-17T10:16:22.729Z,2.58
2018-07-17T10:18:51.075Z,2.65
2018-07-17T10:21:19.450Z,2.98
2018-07-17T10:23:47.793Z,3.40
2018-07-17T10:26:16.423Z,2.87
2018-07-17T10:28:44.842Z,3.10
2018-07-17T10:31:13.192Z,4.62
2018-07-17T10:33:41.465Z,3.50
2018-07-17T10:36:09.781Z,3.85
2018-07-17T10:38:38.088Z,7.65
2018-07-17T10:41:06.387Z,6.08
2018-07-17T10:43:34.742Z,4.00
2018-07-17T10:46:03.061Z,4.17
2018-07-17T10:48:31.352Z,3.90
2018-07-17T10:50:59.772Z,2.92
2018-07-17T10:53:28.216Z,3.30
2018-07-17T10:55:56.633Z,3.55
2018-07-17T10:58:25.012Z,4.12
2018-07-17T11:00:53.543Z,3.60
2018-07-17T11:03:22.480Z,3.12
2018-07-17T11:05:50.896Z,3.67
2018-07-17T11:08:19.243Z,3.52
2018-07-17T11:10:47.558Z,3.15
2018-07-17T11:13:15.878Z,2.58
2018-07-17T11:15:44.153Z,2.87
2018-07-17T11:18:12.449Z,2.37
2018-07-17T11:20:40.770Z,2.40
2018-07-17T11:23:09.080Z,3.00
2018-07-17T11:25:37.432Z,2.77
2018-07-17T11:28:06.017Z,2.30
2018-07-17T11:30:34.485Z,3.02
2018-07-17T11:33:02.827Z,3.15
2018-07-17T11:35:31.203Z,2.72
2018-07-17T11:37:59.777Z,2.52
2018-07-17T11:40:28.102Z,2.72
2018-07-17T11:42:56.413Z,2.80
2018-07-17T11:45:24.756Z,2.50
2018-07-17T11:47:53.166Z,3.00
2018-07-17T11:50:21.453Z,2.37
2018-07-17T11:52:49.899Z,2.10
2018-07-17T11:55:18.236Z,2.55
2018-07-17T11:57:46.536Z,2.67
2018-07-17T12:00:14.851Z,2.12
2018-07-17T12:02:43.195Z,2.37
2018-07-17T12:05:11.525Z,2.85
2018-07-17T12:07:39.846Z,3.47
2018-07-17T12:10:08.385Z,3.27
2018-07-17T12:12:36.759Z,3.10
2018-07-17T12:15:05.122Z,2.35
2018-07-17T12:17:33.604Z,2.75
2018-07-17T12:20:02.182Z,3.22
2018-07-17T12:22:30.477Z,2.72
2018-07-17T12:24:58.829Z,3.22
2018-07-17T12:27:27.163Z,3.30
2018-07-17T12:29:55.521Z,3.98
2018-07-17T12:32:23.818Z,3.30
2018-07-17T12:34:52.166Z,3.15
2018-07-17T12:37:20.444Z,3.30
2018-07-17T12:39:48.724Z,4.30
2018-07-17T12:42:17.497Z,4.53
2018-07-17T12:44:45.824Z,4.53
2018-07-17T12:47:14.168Z,4.80
2018-07-17T12:49:42.555Z,4.45
2018-07-17T12:52:10.960Z,4.12
2018-07-17T12:54:39.457Z,3.65
2018-07-17T12:57:07.791Z,3.98
2018-07-17T12:59:36.226Z,3.60
2018-07-17T13:02:04.579Z,3.45
2018-07-17T13:04:32.967Z,2.95
2018-07-17T13:07:01.252Z,3.22
2018-07-17T13:09:29.578Z,3.30
2018-07-17T13:11:58.118Z,2.98
2018-07-17T13:14:26.432Z,2.83
2018-07-17T13:16:54.773Z,2.70
2018-07-17T13:19:23.116Z,2.75
2018-07-17T13:21:51.408Z,2.90
2018-07-17T13:24:19.700Z,2.83
2018-07-17T13:26:48.046Z,2.85
2018-07-17T13:29:17.160Z,2.80
2018-07-17T13:34:35.474Z,2.60
2018-07-17T13:37:03.804Z,2.52
2018-07-17T13:39:32.154Z,2.12
2018-07-17T13:42:00.160Z,2.20
2018-07-17T13:44:28.500Z,2.00
2018-07-17T13:46:56.828Z,2.20
2018-07-17T13:49:25.149Z,2.20
2018-07-17T13:51:53.517Z,2.37
2018-07-17T13:54:21.850Z,1.87
2018-07-17T13:56:50.203Z,2.08
2018-07-17T13:59:18.715Z,1.80
2018-07-17T14:01:47.040Z,2.00
2018-07-17T14:04:15.383Z,2.00
2018-07-17T14:06:43.712Z,2.12
2018-07-17T14:09:12.185Z,1.90
2018-07-17T14:11:40.537Z,1.82
2018-07-17T14:14:08.880Z,1.82
2018-07-17T14:16:37.214Z,2.10
2018-07-17T14:19:05.544Z,2.15
2018-07-17T14:21:33.974Z,2.00
2018-07-17T14:24:02.308Z,1.67
2018-07-17T14:26:30.904Z,1.70
2018-07-17T14:28:59.302Z,1.70
2018-07-17T14:31:27.732Z,2.15
2018-07-17T14:33:56.129Z,2.40
2018-07-17T14:36:24.798Z,2.50
2018-07-17T14:38:53.146Z,2.50
2018-07-17T14:41:21.456Z,1.90
2018-07-17T14:43:49.773Z,2.02
2018-07-17T14:46:18.077Z,1.82
2018-07-17T14:48:46.372Z,2.40
2018-07-17T14:51:14.880Z,1.80
2018-07-17T14:53:43.174Z,1.70
2018-07-17T14:56:11.520Z,2.10
2018-07-17T14:58:39.821Z,2.02
2018-07-17T15:01:08.119Z,2.37
2018-07-17T15:03:36.432Z,2.45
2018-07-17T15:06:04.841Z,2.17
2018-07-17T15:08:33.294Z,2.15
2018-07-17T15:11:01.667Z,2.50
2018-07-17T15:13:29.970Z,2.47
2018-07-17T15:15:58.344Z,2.20
2018-07-17T15:18:26.615Z,2.20
2018-07-17T15:20:54.926Z,2.42
2018-07-17T15:23:23.263Z,2.20
2018-07-17T15:25:51.559Z,2.33
2018-07-17T15:28:19.871Z,2.60
2018-07-17T15:30:48.233Z,2.47
2018-07-17T15:33:16.504Z,2.67
2018-07-17T15:35:44.858Z,2.25
2018-07-17T15:38:13.198Z,2.50
2018-07-17T15:40:41.524Z,2.83
2018-07-17T15:43:10.729Z,2.52
2018-07-17T15:45:39.126Z,2.05
2018-07-17T15:48:07.585Z,2.90
2018-07-17T15:50:35.952Z,2.10
2018-07-17T15:53:04.272Z,2.70
2018-07-17T15:55:32.582Z,2.40
2018-07-17T15:58:00.912Z,2.70
2018-07-17T16:00:29.269Z,2.62
2018-07-17T16:02:57.556Z,2.30
2018-07-17T16:05:25.993Z,2.60
2018-07-17T16:07:54.286Z,2.15
2018-07-17T16:10:22.655Z,2.30
2018-07-17T16:12:51.072Z,1.90
2018-07-17T16:15:19.460Z,2.00
2018-07-17T16:17:47.773Z,2.00
2018-07-17T16:20:16.099Z,1.75
2018-07-17T16:22:44.499Z,2.02
2018-07-17T16:25:12.848Z,1.60
2018-07-17T16:27:41.200Z,2.33
2018-07-17T16:30:09.488Z,1.70
2018-07-17T16:32:37.763Z,2.90
2018-07-17T16:35:06.137Z,2.47
2018-07-17T16:37:34.426Z,2.20
2018-07-17T16:40:02.739Z,2.20
2018-07-17T16:42:31.089Z,2.33
2018-07-17T16:44:59.531Z,2.70
2018-07-17T16:47:27.906Z,2.12
2018-07-17T16:49:56.258Z,2.60
2018-07-17T16:52:24.551Z,2.65
2018-07-17T16:54:52.878Z,2.40
2018-07-17T16:57:21.249Z,2.60
2018-07-17T16:59:49.662Z,3.00
2018-07-17T17:02:18.019Z,2.52
2018-07-17T17:04:46.321Z,2.58
2018-07-17T17:07:14.652Z,2.70
2018-07-17T17:09:43.279Z,2.70
2018-07-17T17:12:11.697Z,2.58
2018-07-17T17:14:40.036Z,2.65
2018-07-17T17:17:08.353Z,2.30
2018-07-17T17:19:36.659Z,2.58
2018-07-17T17:22:04.979Z,2.83
2018-07-17T17:24:33.279Z,2.90
2018-07-17T17:27:02.637Z,3.20
2018-07-17T17:29:31.169Z,3.10
2018-07-17T17:31:59.446Z,2.65
2018-07-17T17:34:27.851Z,2.87
2018-07-17T17:36:56.250Z,3.17
2018-07-17T17:39:25.010Z,2.80
2018-07-17T17:41:53.285Z,2.62
2018-07-17T17:44:21.612Z,3.33
2018-07-17T17:46:49.958Z,3.08
2018-07-17T17:49:18.268Z,3.02
2018-07-17T17:51:46.928Z,2.80
2018-07-17T17:54:15.161Z,2.45
2018-07-17T17:56:43.473Z,3.02
2018-07-17T17:59:11.788Z,3.33
2018-07-17T18:01:40.172Z,3.10
2018-07-17T18:04:08.177Z,2.90
2018-07-17T18:06:36.508Z,3.52
2018-07-17T18:09:07.264Z,2.72
2018-07-17T18:11:36.084Z,3.02
2018-07-17T18:14:04.541Z,3.30
2018-07-17T18:16:32.898Z,2.80
2018-07-17T18:19:01.280Z,3.10
2018-07-17T18:21:29.361Z,2.85
2018-07-17T18:23:57.650Z,3.22
2018-07-17T18:26:25.989Z,3.15
2018-07-17T18:28:54.303Z,3.40
2018-07-17T18:31:22.585Z,3.27
2018-07-17T18:33:50.867Z,3.25
2018-07-17T18:36:19.123Z,3.25
2018-07-17T18:38:47.562Z,3.17
2018-07-17T18:41:16.257Z,3.00
2018-07-17T18:43:44.792Z,3.30
2018-07-17T18:46:13.213Z,3.00
2018-07-17T18:48:47.374Z,3.10
2018-07-17T18:51:16.383Z,2.95
2018-07-17T18:53:45.078Z,2.80
2018-07-17T18:56:13.734Z,2.85
2018-07-17T18:58:43.158Z,3.50
2018-07-17T19:01:11.471Z,2.80
2018-07-17T19:03:39.909Z,2.37
2018-07-17T19:06:08.950Z,2.75
2018-07-17T19:08:37.343Z,2.87
2018-07-17T19:11:05.650Z,2.72
2018-07-17T19:13:34.015Z,3.12
2018-07-17T19:16:02.338Z,2.72
2018-07-17T19:18:30.659Z,3.22
2018-07-17T19:20:59.139Z,3.58
2018-07-17T19:23:27.652Z,3.72
2018-07-17T19:25:55.944Z,2.80
2018-07-17T19:28:24.251Z,3.17
2018-07-17T19:30:52.580Z,3.47
2018-07-17T19:33:20.880Z,3.20
2018-07-17T19:35:49.484Z,3.72
2018-07-17T19:38:17.788Z,3.00
2018-07-17T19:40:46.179Z,2.92
2018-07-17T19:43:14.523Z,3.00
2018-07-17T19:45:42.807Z,3.20
2018-07-17T19:48:11.155Z,3.17
2018-07-17T19:50:39.472Z,2.85
2018-07-17T19:53:07.740Z,2.75
2018-07-17T19:55:36.076Z,3.35
2018-07-17T19:58:04.379Z,3.20
2018-07-17T20:00:33.260Z,3.08
2018-07-17T20:03:01.632Z,3.27
2018-07-17T20:05:29.986Z,4.12
2018-07-17T20:07:58.316Z,4.05
2018-07-17T20:10:26.673Z,3.62
2018-07-17T20:12:55.073Z,3.87
2018-07-17T20:15:23.512Z,2.85
2018-07-17T20:17:52.067Z,3.60
2018-07-17T20:20:20.445Z,3.83
2018-07-17T20:22:48.752Z,3.77
2018-07-17T20:25:17.082Z,3.50
2018-07-17T20:27:45.374Z,3.70
2018-07-17T20:30:13.859Z,3.58
2018-07-17T20:32:42.157Z,3.72
2018-07-17T20:35:10.519Z,3.77
2018-07-17T20:37:38.885Z,4.08
2018-07-17T20:40:07.190Z,4.20
2018-07-17T20:42:35.496Z,4.67
2018-07-17T20:45:03.815Z,4.45
2018-07-17T20:47:32.147Z,4.70
2018-07-17T20:50:00.480Z,4.60
2018-07-17T20:52:28.836Z,4.10
2018-07-17T20:54:57.136Z,4.35
2018-07-17T20:57:25.476Z,4.20
2018-07-17T20:59:53.841Z,3.90
2018-07-17T21:02:22.222Z,4.78
2018-07-17T21:04:50.592Z,4.08
2018-07-17T21:07:18.966Z,4.22
2018-07-17T21:09:47.268Z,3.90
2018-07-17T21:12:15.593Z,4.35
2018-07-17T21:14:43.951Z,4.20
2018-07-17T21:17:12.227Z,4.20
2018-07-17T21:19:40.560Z,4.47
2018-07-17T21:22:08.855Z,4.15
2018-07-17T21:24:36.970Z,4.95
2018-07-17T21:27:05.405Z,4.50
2018-07-17T21:29:33.765Z,4.25
2018-07-17T21:32:02.150Z,4.00
2018-07-17T21:34:30.516Z,4.42
2018-07-17T21:36:58.843Z,4.50
2018-07-17T21:39:27.206Z,4.33
2018-07-17T21:41:55.533Z,4.45
2018-07-17T21:44:24.006Z,4.78
2018-07-17T21:46:52.311Z,4.78
2018-07-17T21:49:20.631Z,5.85
2018-07-17T21:51:48.975Z,5.30
2018-07-17T21:54:17.271Z,5.17
2018-07-17T21:56:45.622Z,4.55
2018-07-17T21:59:13.897Z,5.42
2018-07-17T22:01:42.227Z,6.08
2018-07-17T22:04:10.584Z,5.42
2018-07-17T22:06:39.010Z,6.05
2018-07-17T22:09:10.159Z,5.40
2018-07-17T22:11:38.574Z,5.33
2018-07-17T22:14:06.884Z,5.85
2018-07-17T22:16:35.164Z,5.72
2018-07-17T22:19:03.457Z,5.40
2018-07-17T22:21:31.921Z,6.05
2018-07-17T22:24:00.384Z,5.37
2018-07-17T22:26:28.856Z,5.72
2018-07-17T22:28:57.645Z,5.60
2018-07-17T22:31:26.092Z,5.58
2018-07-17T22:33:54.404Z,5.35
2018-07-17T22:36:22.729Z,5.47
2018-07-17T22:38:51.039Z,5.22
2018-07-17T22:41:19.475Z,5.72
2018-07-17T22:43:47.934Z,5.47
2018-07-17T22:46:16.272Z,5.42
2018-07-17T22:48:44.814Z,4.92
2018-07-17T22:51:13.149Z,5.42
2018-07-17T22:53:41.532Z,5.62
2018-07-17T22:56:09.973Z,5.37
2018-07-17T22:58:38.320Z,5.65
2018-07-17T23:01:07.024Z,5.70
2018-07-17T23:03:35.401Z,5.20
2018-07-17T23:06:03.971Z,5.42
2018-07-17T23:08:32.249Z,5.12
2018-07-17T23:11:00.550Z,6.25
2018-07-17T23:13:28.903Z,5.53
2018-07-17T23:15:57.211Z,5.87
2018-07-17T23:18:25.539Z,5.75
2018-07-17T23:20:53.924Z,5.83
2018-07-17T23:23:22.260Z,5.75
2018-07-17T23:25:50.615Z,5.70
2018-07-17T23:28:18.880Z,6.15
2018-07-17T23:30:47.265Z,5.12
2018-07-17T23:33:15.628Z,6.22
2018-07-17T23:35:43.985Z,5.92
2018-07-17T23:38:12.342Z,5.58
2018-07-17T23:40:40.968Z,5.65
2018-07-17T23:43:09.254Z,5.75
2018-07-17T23:45:37.683Z,6.67
2018-07-17T23:48:05.957Z,6.67
2018-07-17T23:50:34.258Z,6.35
2018-07-17T23:53:02.521Z,5.92
2018-07-17T23:55:30.794Z,7.20
2018-07-17T23:57:59.202Z,6.35
